Time;durP1;ratioP1;P1;durP2;ratioP2;P2;SDS_P1;SDS_P2;PMS_P1;PMS_P2;Temp;Humidity;BMP_temperature;BMP_pressure;BME280_temperature;BME280_humidity;BME280_pressure;Samples;Min_cycle;Max_cycle;Signal;HPM_P1;HPM_P2
2022/03/05 00:00:49;;;;;;;4.82;2.03;;;;;;;3.23;59.37;102143.69;5035551;27;100919;-35
2022/03/05 00:03:15;;;;;;;6.25;3.03;;;;;;;3.23;59.87;102134.78;5054474;27;96430;-35
2022/03/05 00:05:41;;;;;;;4.43;2.28;;;;;;;3.24;59.83;102140.09;5053972;27;96773;-35
2022/03/05 00:08:07;;;;;;;4.85;2.90;;;;;;;3.23;59.34;102143.69;5053494;27;98946;-35
2022/03/05 00:10:33;;;;;;;3.70;2.40;;;;;;;3.21;60.18;102145.50;5035922;27;101194;-34
2022/03/05 00:12:58;;;;;;;8.27;3.72;;;;;;;3.22;60.47;102138.34;5054006;27;96594;-34
2022/03/05 00:15:24;;;;;;;6.93;2.75;;;;;;;3.19;59.13;102144.59;5054185;27;96740;-34
2022/03/05 00:17:50;;;;;;;4.78;1.40;;;;;;;3.15;58.85;102148.25;5053150;27;99608;-35
2022/03/05 00:20:19;;;;;;;4.13;2.15;;;;;;;3.13;59.54;102142.91;5035434;27;100872;-35
2022/03/05 00:22:46;;;;;;;5.00;2.67;;;;;;;3.11;59.60;102142.03;5053948;27;96478;-35
2022/03/05 00:25:11;;;;;;;3.70;2.05;;;;;;;3.07;59.29;102147.41;5035677;27;96835;-35
2022/03/05 00:27:37;;;;;;;4.97;2.95;;;;;;;3.03;60.30;102134.94;5053838;27;97828;-35
2022/03/05 00:30:03;;;;;;;1.65;1.50;;;;;;;2.98;60.74;102132.34;5053577;27;106060;-35
2022/03/05 00:32:28;;;;;;;9.27;3.17;;;;;;;3.00;60.75;102145.69;5053279;27;96687;-34
2022/03/05 00:34:53;;;;;;;4.32;1.80;;;;;;;3.01;60.05;102143.03;5053418;27;111098;-35
2022/03/05 00:37:18;;;;;;;3.70;2.08;;;;;;;2.90;60.72;102137.75;5053692;27;108523;-35
2022/03/05 00:39:44;;;;;;;3.40;2.22;;;;;;;2.89;60.75;102138.66;5053515;27;103436;-35
2022/03/05 00:42:18;;;;;;;4.85;2.38;;;;;;;2.92;61.42;102153.81;5053185;27;96550;-34
2022/03/05 00:44:43;;;;;;;1.40;1.30;;;;;;;2.82;60.58;102144.09;5053719;27;96741;-35
2022/03/05 00:47:09;;;;;;;8.15;3.25;;;;;;;2.85;61.24;102154.75;5052484;27;126201;-35
2022/03/05 00:49:34;;;;;;;5.45;2.45;;;;;;;2.86;62.06;102157.44;5052475;27;127309;-34
2022/03/05 00:51:59;;;;;;;2.47;1.90;;;;;;;2.78;60.08;102140.53;5053460;27;96525;-34
2022/03/05 00:54:25;;;;;;;8.52;2.28;;;;;;;2.74;60.81;102157.50;5053478;27;96508;-34
2022/03/05 00:56:50;;;;;;;3.80;2.00;;;;;;;2.71;62.04;102165.56;5053498;27;97997;-35
2022/03/05 00:59:15;;;;;;;4.97;2.80;;;;;;;2.66;61.57;102152.22;5053478;27;105327;-35
2022/03/05 01:01:41;;;;;;;3.38;1.58;;;;;;;2.71;61.89;102169.13;5053140;27;96737;-35
2022/03/05 01:04:06;;;;;;;2.53;1.70;;;;;;;2.65;62.21;102160.28;5053303;27;97067;-34
2022/03/05 01:06:32;;;;;;;5.53;2.90;;;;;;;2.51;62.39;102138.97;5052417;27;98003;-33
2022/03/05 01:08:59;;;;;;;5.32;3.33;;;;;;;2.60;62.45;102146.03;5034672;27;100740;-35
2022/03/05 01:11:25;;;;;;;3.58;2.38;;;;;;;2.60;62.33;102167.41;5034683;27;96527;-35
2022/03/05 01:13:51;;;;;;;6.30;2.72;;;;;;;2.54;63.04;102155.00;5053259;27;96826;-35
2022/03/05 01:16:16;;;;;;;5.78;3.15;;;;;;;2.57;61.66;102164.78;5051709;27;119291;-35
2022/03/05 01:18:42;;;;;;;7.20;3.55;;;;;;;2.52;62.34;102165.69;5034461;27;101054;-35
2022/03/05 01:21:07;;;;;;;2.40;1.65;;;;;;;2.48;62.74;102171.97;5053293;27;96565;-34
2022/03/05 01:23:32;;;;;;;7.78;2.42;;;;;;;2.43;63.39;102159.53;5053695;27;96753;-35
2022/03/05 01:25:58;;;;;;;4.90;1.90;;;;;;;2.48;63.12;102171.97;5053055;27;97926;-35
2022/03/05 01:28:23;;;;;;;2.72;1.90;;;;;;;2.49;63.30;102170.19;5053031;27;97916;-34
2022/03/05 01:30:48;;;;;;;7.68;3.90;;;;;;;2.46;63.30;102168.44;5052252;27;97830;-35
2022/03/05 01:33:15;;;;;;;7.05;2.70;;;;;;;2.38;62.06;102164.00;5052334;27;96802;-35
2022/03/05 01:35:44;;;;;;;4.10;2.15;;;;;;;2.40;63.34;102168.44;5052894;27;98130;-34
2022/03/05 01:38:09;;;;;;;6.15;3.15;;;;;;;2.37;63.30;102171.16;5052555;27;97904;-35
2022/03/05 01:40:35;;;;;;;2.70;1.95;;;;;;;2.37;62.25;102171.16;5053222;27;96751;-35
2022/03/05 01:43:01;;;;;;;4.38;2.50;;;;;;;2.29;64.09;102168.53;5052794;27;96708;-35
2022/03/05 01:45:26;;;;;;;6.07;3.38;;;;;;;2.28;63.83;102169.41;5052324;27;99718;-35
2022/03/05 01:47:52;;;;;;;7.70;2.55;;;;;;;2.25;64.01;102166.75;5052675;27;97882;-35
2022/03/05 01:50:17;;;;;;;5.35;2.95;;;;;;;2.18;64.32;102161.47;5052584;27;97008;-35
2022/03/05 01:52:42;;;;;;;12.13;4.40;;;;;;;2.18;64.05;102164.16;5052645;27;96805;-35
2022/03/05 01:55:12;;;;;;;6.78;3.58;;;;;;;2.23;64.05;102167.69;5052071;27;98123;-35
2022/03/05 01:57:38;;;;;;;5.43;2.90;;;;;;;2.15;63.48;102159.72;5052104;27;99063;-34
2022/03/05 02:00:06;;;;;;;4.25;2.75;;;;;;;2.15;64.47;102169.50;5034138;27;96746;-35
2022/03/05 02:02:31;;;;;;;6.05;2.80;;;;;;;2.10;64.96;102164.19;5033552;27;99687;-34
2022/03/05 02:04:57;;;;;;;7.07;4.03;;;;;;;2.10;64.76;102170.41;5052464;27;97919;-35
2022/03/05 02:07:22;;;;;;;5.65;3.33;;;;;;;1.98;64.71;102133.06;5051657;27;99179;-34
2022/03/05 02:09:47;;;;;;;5.75;4.15;;;;;;;2.01;64.38;102157.09;5052378;27;96480;-35
2022/03/05 02:12:13;;;;;;;5.63;3.20;;;;;;;2.01;65.26;102158.88;5052530;27;96855;-35
2022/03/05 02:14:38;;;;;;;8.95;4.60;;;;;;;2.04;65.43;102157.06;5051522;27;126784;-35
2022/03/05 02:17:04;;;;;;;4.20;2.53;;;;;;;2.01;64.98;102156.22;5052133;27;98811;-35
2022/03/05 02:19:29;;;;;;;4.95;2.95;;;;;;;1.95;65.43;102143.75;5051948;27;96560;-35
2022/03/05 02:21:54;;;;;;;4.88;2.95;;;;;;;1.94;65.15;102149.13;5051953;27;96788;-35
2022/03/05 02:24:31;;;;;;;6.15;2.22;;;;;;;1.96;64.37;102158.91;5052062;27;101820;-35
2022/03/05 02:27:06;;;;;;;6.65;3.17;;;;;;;1.96;65.08;102164.25;5052045;27;99411;-34
2022/03/05 02:29:33;;;;;;;9.35;4.07;;;;;;;1.91;64.73;102155.38;5035659;27;97045;-35
2022/03/05 02:31:58;;;;;;;5.90;3.03;;;;;;;1.90;66.51;102151.78;5036875;27;96944;-35
2022/03/05 02:34:24;;;;;;;5.25;2.88;;;;;;;1.89;65.68;102165.19;5055655;27;96786;-35
2022/03/05 02:36:50;;;;;;;13.45;3.22;;;;;;;1.89;65.56;102159.84;5037506;27;99139;-35
2022/03/05 02:39:15;;;;;;;3.55;1.88;;;;;;;1.82;64.84;102156.28;5055808;27;96737;-35
2022/03/05 02:41:41;;;;;;;6.80;3.00;;;;;;;1.82;65.93;102160.75;5055742;27;96693;-35
2022/03/05 02:44:06;;;;;;;14.70;3.33;;;;;;;1.79;66.79;102153.66;5054316;27;115094;-35
2022/03/05 02:46:34;;;;;;;8.77;3.40;;;;;;;1.78;65.60;102158.97;5055258;27;99787;-35
2022/03/05 02:48:59;;;;;;;10.50;3.72;;;;;;;1.76;66.31;102160.78;5037005;27;96726;-35
2022/03/05 02:51:25;;;;;;;3.15;2.20;;;;;;;1.77;65.23;102158.09;5055712;27;96715;-35
2022/03/05 02:53:50;;;;;;;8.50;2.90;;;;;;;1.74;66.22;102165.22;5054874;27;108541;-35
2022/03/05 02:56:15;;;;;;;9.88;2.35;;;;;;;1.72;65.85;102164.34;5055238;27;97969;-35
2022/03/05 02:58:41;;;;;;;3.08;1.95;;;;;;;1.63;65.87;102154.59;5055248;27;96706;-34
2022/03/05 03:01:06;;;;;;;6.03;3.53;;;;;;;1.66;66.44;102157.25;5054499;27;121486;-35
2022/03/05 03:03:32;;;;;;;6.85;3.05;;;;;;;1.65;66.57;102161.69;5054690;27;109528;-35
2022/03/05 03:05:57;;;;;;;7.28;2.42;;;;;;;1.58;65.67;102151.06;5036628;27;99143;-35
2022/03/05 03:08:22;;;;;;;6.38;2.53;;;;;;;1.61;66.59;102154.59;5053348;27;123379;-35
2022/03/05 03:10:48;;;;;;;3.42;2.15;;;;;;;1.54;67.05;102135.94;5055261;27;96743;-35
2022/03/05 03:13:13;;;;;;;7.15;2.80;;;;;;;1.50;66.28;102132.38;5054883;27;97462;-35
2022/03/05 03:15:38;;;;;;;4.05;2.50;;;;;;;1.51;66.55;102144.84;5054899;27;97767;-35
2022/03/05 03:18:04;;;;;;;5.40;2.67;;;;;;;1.50;67.69;102143.03;5055143;27;96483;-35
2022/03/05 03:20:29;;;;;;;4.63;2.70;;;;;;;1.50;67.58;102132.38;5054949;27;96837;-35
2022/03/05 03:22:55;;;;;;;6.35;2.88;;;;;;;1.45;66.42;102123.50;5054985;27;97767;-35
2022/03/05 03:25:20;;;;;;;8.63;4.03;;;;;;;1.43;67.10;102127.94;5055032;27;99266;-35
2022/03/05 03:27:46;;;;;;;3.15;2.63;;;;;;;1.40;66.50;102131.50;5054748;27;96498;-35
2022/03/05 03:30:13;;;;;;;1.75;1.40;;;;;;;1.33;66.93;102119.06;5054150;27;117741;-35
2022/03/05 03:32:39;;;;;;;4.70;3.20;;;;;;;1.37;67.62;102120.84;5035466;27;101329;-35
2022/03/05 03:35:06;;;;;;;6.38;3.88;;;;;;;1.42;66.89;102137.75;5054776;27;97992;-35
2022/03/05 03:37:31;;;;;;;3.30;2.00;;;;;;;1.36;66.92;102131.53;5036316;27;97387;-35
2022/03/05 03:39:58;;;;;;;6.95;1.88;;;;;;;1.37;66.41;102127.97;5053940;27;96799;-35
2022/03/05 03:42:24;;;;;;;5.07;2.70;;;;;;;1.35;66.06;102124.41;5035899;27;100829;-35
2022/03/05 03:44:49;;;;;;;3.75;2.28;;;;;;;1.30;67.48;102127.09;5035952;27;100938;-35
2022/03/05 03:47:15;;;;;;;6.72;2.95;;;;;;;1.19;66.93;102121.81;5053918;27;115751;-35
2022/03/05 03:49:40;;;;;;;5.25;3.80;;;;;;;1.23;65.34;102128.88;5054912;27;96448;-35
2022/03/05 03:52:06;;;;;;;4.88;3.70;;;;;;;1.10;67.16;102111.16;5053923;27;106208;-35
2022/03/05 03:54:31;;;;;;;4.75;2.42;;;;;;;1.14;66.68;102115.56;5054354;27;97798;-35
2022/03/05 03:56:57;;;;;;;3.60;2.35;;;;;;;1.16;67.46;102123.56;5053866;27;96569;-35
2022/03/05 03:59:22;;;;;;;3.17;2.30;;;;;;;1.09;67.65;102112.03;5054458;27;96756;-34
2022/03/05 04:01:47;;;;;;;7.50;3.40;;;;;;;1.12;67.72;102133.38;5054013;27;99401;-35
2022/03/05 04:04:13;;;;;;;2.38;1.23;;;;;;;1.13;68.05;102135.16;5054272;27;97109;-35
2022/03/05 04:09:23;;;;;;;13.50;4.25;;;;;;;1.11;67.44;102139.59;5054383;27;96549;-34
2022/03/05 04:11:48;;;;;;;9.27;1.90;;;;;;;1.05;68.14;102126.28;5053931;27;97810;-35
2022/03/05 04:14:13;;;;;;;5.72;3.88;;;;;;;1.05;67.91;102137.84;5054374;27;101744;-35
2022/03/05 04:16:39;;;;;;;5.15;2.75;;;;;;;1.03;68.25;102130.72;5053908;27;96527;-34
2022/03/05 04:19:04;;;;;;;2.08;1.58;;;;;;;0.92;68.10;102125.38;5053139;27;120214;-35
2022/03/05 04:21:29;;;;;;;3.28;2.42;;;;;;;0.89;68.51;102116.50;5034053;27;127814;-35
2022/03/05 04:23:55;;;;;;;7.05;2.35;;;;;;;0.95;67.94;102128.03;5053627;27;99448;-35
2022/03/05 04:26:20;;;;;;;7.13;3.80;;;;;;;0.95;67.53;102122.69;5053249;27;113872;-35
2022/03/05 04:28:45;;;;;;;2.85;2.00;;;;;;;0.90;67.86;102128.94;5053987;27;96785;-35
2022/03/05 04:31:10;;;;;;;6.10;3.78;;;;;;;0.84;68.72;102127.19;5034351;27;123467;-35
2022/03/05 04:33:36;;;;;;;1.73;1.30;;;;;;;0.84;69.13;102124.50;5052736;27;126479;-35
2022/03/05 04:36:01;;;;;;;3.42;2.38;;;;;;;0.82;68.75;102121.84;5054028;27;96402;-35
2022/03/05 04:38:26;;;;;;;4.10;2.42;;;;;;;0.83;69.29;102128.97;5054103;27;96784;-35
2022/03/05 04:40:52;;;;;;;2.08;1.45;;;;;;;0.83;68.36;102136.06;5053641;27;98527;-35
2022/03/05 04:43:17;;;;;;;4.03;3.25;;;;;;;0.74;67.23;102118.31;5052804;27;126992;-35
2022/03/05 04:45:42;;;;;;;5.18;2.90;;;;;;;0.78;67.63;102130.72;5052139;27;122824;-35
2022/03/05 04:48:07;;;;;;;4.00;3.30;;;;;;;0.79;68.69;102140.53;5053715;27;96871;-35
2022/03/05 04:50:33;;;;;;;2.67;1.88;;;;;;;0.80;68.27;102133.41;5053043;27;97830;-35
2022/03/05 04:52:58;;;;;;;3.15;2.00;;;;;;;0.77;68.91;102134.28;5033609;27;115417;-35
2022/03/05 04:55:24;;;;;;;3.40;2.47;;;;;;;0.71;68.72;102125.41;5053148;27;98871;-35
2022/03/05 04:57:49;;;;;;;3.13;2.17;;;;;;;0.71;68.41;102133.41;5053492;27;96730;-35
2022/03/05 05:00:15;;;;;;;5.25;2.72;;;;;;;0.73;68.30;102135.16;5052200;27;126133;-35
2022/03/05 05:02:41;;;;;;;10.00;3.55;;;;;;;0.78;68.53;102152.06;5053566;27;97976;-35
2022/03/05 05:05:07;;;;;;;11.10;2.80;;;;;;;0.72;68.27;102144.06;5053817;27;96740;-35
2022/03/05 05:07:32;;;;;;;7.88;3.03;;;;;;;0.72;68.82;102148.53;5052498;27;96831;-35
2022/03/05 05:09:57;;;;;;;3.63;1.42;;;;;;;0.69;68.10;102149.41;5052535;27;98004;-35
2022/03/05 05:12:24;;;;;;;7.20;2.80;;;;;;;0.72;68.87;102152.06;5052724;27;111555;-35
2022/03/05 05:14:49;;;;;;;3.38;1.33;;;;;;;0.70;68.42;102151.19;5053215;27;96442;-35
2022/03/05 05:17:15;;;;;;;5.40;2.17;;;;;;;0.70;68.95;102160.97;5053315;27;96776;-35
2022/03/05 05:19:40;;;;;;;3.90;2.35;;;;;;;0.70;68.24;102151.19;5053116;27;97915;-35
2022/03/05 05:22:06;;;;;;;4.10;1.48;;;;;;;0.66;68.65;102144.06;5052241;27;122900;-35
2022/03/05 05:24:34;;;;;;;5.65;3.08;;;;;;;0.61;68.86;102137.84;5034374;27;96561;-35
2022/03/05 05:27:01;;;;;;;3.45;2.60;;;;;;;0.60;68.68;102136.97;5035085;27;96802;-35
2022/03/05 05:29:26;;;;;;;4.25;2.17;;;;;;;0.65;68.26;102152.09;5052973;27;97471;-35
2022/03/05 05:31:53;;;;;;;1.70;1.35;;;;;;;0.61;69.36;102152.06;5052876;27;97134;-35
2022/03/05 05:34:18;;;;;;;8.52;4.47;;;;;;;0.58;69.05;102149.41;5034008;27;96981;-34
2022/03/05 05:36:44;;;;;;;5.95;3.22;;;;;;;0.49;69.47;102149.38;5052603;27;99339;-34
2022/03/05 05:39:11;;;;;;;4.45;2.78;;;;;;;0.54;69.14;102166.25;5033997;27;101059;-34
2022/03/05 05:41:38;;;;;;;5.00;2.35;;;;;;;0.57;68.86;102163.63;5034196;27;100914;-34
2022/03/05 05:44:05;;;;;;;3.03;2.05;;;;;;;0.47;69.42;102152.94;5034358;27;96760;-35
2022/03/05 05:46:30;;;;;;;3.65;1.42;;;;;;;0.54;68.85;102166.25;5034239;27;97390;-34
2022/03/05 05:48:57;;;;;;;3.63;2.40;;;;;;;0.48;68.64;102168.03;5052332;27;100540;-35
2022/03/05 05:51:24;;;;;;;2.97;2.70;;;;;;;0.50;69.50;102175.16;5034508;27;101191;-35
2022/03/05 05:53:49;;;;;;;6.00;3.22;;;;;;;0.49;69.17;102177.81;5017678;27;96703;-35
2022/03/05 05:56:14;;;;;;;3.05;1.88;;;;;;;0.42;69.57;102163.59;5052659;27;96876;-35
2022/03/05 05:58:40;;;;;;;10.02;3.13;;;;;;;0.42;69.49;102176.91;5051873;27;99147;-35
2022/03/05 06:01:05;;;;;;;5.55;3.28;;;;;;;0.39;69.37;102175.13;5052139;27;97882;-35
2022/03/05 06:03:31;;;;;;;4.55;2.30;;;;;;;0.33;69.89;102176.91;5052326;27;96556;-35
2022/03/05 06:05:58;;;;;;;3.35;1.67;;;;;;;0.27;69.86;102177.78;5052630;27;96726;-35
2022/03/05 06:08:23;;;;;;;2.33;2.13;;;;;;;0.30;70.13;102174.22;5033234;27;100993;-35
2022/03/05 06:10:48;;;;;;;3.42;2.28;;;;;;;0.33;70.44;102196.44;5052330;27;97796;-35
2022/03/05 06:13:14;;;;;;;6.18;2.33;;;;;;;0.27;69.88;102180.44;5052277;27;98886;-35
2022/03/05 06:15:39;;;;;;;6.85;3.00;;;;;;;0.30;70.29;102185.78;5052575;27;97807;-35
2022/03/05 06:18:04;;;;;;;6.85;3.08;;;;;;;0.31;70.04;102192.91;5052227;27;97885;-35
2022/03/05 06:20:30;;;;;;;1.45;1.35;;;;;;;0.22;69.23;102179.56;5051270;27;126211;-35
2022/03/05 06:22:55;;;;;;;3.53;2.38;;;;;;;0.14;70.66;102168.88;5051713;27;96611;-35
2022/03/05 06:25:20;;;;;;;7.50;2.70;;;;;;;0.12;70.56;102165.31;5051417;27;120900;-35
2022/03/05 06:27:46;;;;;;;4.57;3.35;;;;;;;0.15;70.32;102173.31;5052093;27;97968;-35
2022/03/05 06:30:12;;;;;;;2.35;1.75;;;;;;;0.21;70.08;102188.41;5051994;27;99284;-35
2022/03/05 06:32:38;;;;;;;11.50;3.63;;;;;;;0.10;68.79;102174.19;5033548;27;96776;-35
2022/03/05 06:35:05;;;;;;;5.78;2.90;;;;;;;0.15;70.66;102201.72;5051918;27;96745;-35
2022/03/05 06:37:31;;;;;;;3.17;2.15;;;;;;;0.13;70.46;102201.72;5033138;27;102096;-35
2022/03/05 06:39:56;;;;;;;3.53;2.13;;;;;;;0.08;70.43;102186.59;5052586;27;97301;-35
2022/03/05 06:42:21;;;;;;;2.55;2.22;;;;;;;0.17;70.61;102200.84;5052247;27;96444;-35
2022/03/05 06:44:47;;;;;;;1.35;1.17;;;;;;;0.14;70.53;102194.59;5052246;27;96721;-35
2022/03/05 06:47:12;;;;;;;6.28;4.18;;;;;;;0.09;70.14;102185.72;5050218;27;129315;-35
2022/03/05 06:49:37;;;;;;;5.80;3.40;;;;;;;0.12;70.36;102199.03;5051446;27;120541;-35
2022/03/05 06:52:03;;;;;;;3.38;2.40;;;;;;;0.09;68.94;102199.03;5050685;27;121899;-35
2022/03/05 06:54:28;;;;;;;6.00;3.25;;;;;;;0.06;70.30;102196.38;5052015;27;96792;-35
2022/03/05 06:56:54;;;;;;;2.97;1.40;;;;;;;0.03;71.07;102196.38;5051206;27;110704;-35
2022/03/05 06:59:19;;;;;;;3.00;1.02;;;;;;;0.01;71.11;102207.00;5051677;27;97762;-35
2022/03/05 07:01:44;;;;;;;7.63;3.40;;;;;;;-0.09;69.67;102203.41;5051796;27;96913;-35
2022/03/05 07:04:09;;;;;;;2.05;1.88;;;;;;;-0.09;69.67;102206.06;5051324;27;120465;-35
2022/03/05 07:06:37;;;;;;;5.43;2.30;;;;;;;-0.22;71.04;102201.56;5051273;27;97924;-35
2022/03/05 07:09:03;;;;;;;3.97;1.92;;;;;;;-0.19;71.49;102216.66;5033135;27;101725;-34
2022/03/05 07:11:29;;;;;;;3.28;1.92;;;;;;;-0.12;71.23;102218.47;5032820;27;97603;-35
2022/03/05 07:13:54;;;;;;;5.63;3.78;;;;;;;-0.11;70.20;102220.28;5051430;27;96813;-35
2022/03/05 07:16:19;;;;;;;3.85;2.05;;;;;;;-0.16;70.55;102211.38;5053767;27;126273;-34
2022/03/05 07:18:45;;;;;;;4.80;2.38;;;;;;;-0.07;70.88;102228.28;5054152;27;127410;-34
2022/03/05 07:21:10;;;;;;;2.13;1.20;;;;;;;-0.07;70.89;102222.03;5054999;27;96724;-35
2022/03/05 07:23:35;;;;;;;6.10;2.78;;;;;;;-0.11;70.41;102214.94;5054855;27;96802;-35
2022/03/05 07:26:00;;;;;;;3.88;2.75;;;;;;;-0.07;70.29;102222.03;5054704;27;113794;-35
2022/03/05 07:28:26;;;;;;;9.88;5.45;;;;;;;0.03;70.77;102236.31;5054890;27;98662;-35
2022/03/05 07:30:52;;;;;;;2.72;1.63;;;;;;;-0.09;71.21;102224.72;5053647;27;122098;-35
2022/03/05 07:33:18;;;;;;;6.13;1.80;;;;;;;0.04;70.90;102222.97;5036340;27;96920;-34
2022/03/05 07:35:43;;;;;;;2.58;1.88;;;;;;;0.18;69.87;102239.91;5054126;27;97929;-35
2022/03/05 07:38:09;;;;;;;3.33;3.00;;;;;;;0.24;69.34;102225.75;5054462;27;99178;-35
2022/03/05 07:40:34;;;;;;;4.82;2.42;;;;;;;0.42;69.84;102230.22;5054711;27;96502;-34
2022/03/05 07:42:59;;;;;;;9.00;4.43;;;;;;;0.57;70.29;102229.34;5053826;27;120048;-35
2022/03/05 07:45:25;;;;;;;3.40;2.22;;;;;;;0.61;69.91;102233.81;5054452;27;97433;-34
2022/03/05 07:47:50;;;;;;;5.00;3.30;;;;;;;0.73;69.83;102233.84;5054494;27;97365;-34
2022/03/05 07:50:16;;;;;;;5.20;2.30;;;;;;;0.83;68.68;102230.31;5054428;27;96587;-35
2022/03/05 07:52:41;;;;;;;4.43;2.75;;;;;;;0.95;67.89;102216.06;5054608;27;96740;-34
2022/03/05 07:55:07;;;;;;;5.10;2.88;;;;;;;1.12;68.20;102234.78;5054405;27;97878;-34
2022/03/05 07:57:33;;;;;;;2.60;2.05;;;;;;;1.13;68.17;102224.97;5054480;27;97831;-34
2022/03/05 07:59:58;;;;;;;3.05;1.92;;;;;;;1.25;68.84;102247.22;5035508;27;97207;-34
2022/03/05 08:02:24;;;;;;;5.43;2.72;;;;;;;1.30;68.59;102236.53;5035458;27;105053;-34
2022/03/05 08:04:50;;;;;;;3.63;1.80;;;;;;;1.46;67.55;102253.44;5054178;27;97436;-34
2022/03/05 08:07:15;;;;;;;3.83;1.58;;;;;;;1.43;67.50;102235.63;5053839;27;97774;-34
2022/03/05 08:09:43;;;;;;;3.78;1.55;;;;;;;1.55;67.57;102247.16;5035853;27;96598;-34
2022/03/05 08:12:09;;;;;;;4.18;2.00;;;;;;;1.62;66.83;102254.28;5053950;27;96772;-34
2022/03/05 08:14:37;;;;;;;2.15;1.98;;;;;;;1.66;66.80;102253.38;5053928;27;98917;-35
2022/03/05 08:17:02;;;;;;;7.20;2.28;;;;;;;1.62;68.04;102247.19;5035897;27;98577;-34
2022/03/05 08:19:28;;;;;;;4.43;2.38;;;;;;;1.67;66.86;102237.38;5053924;27;96786;-34
2022/03/05 08:21:53;;;;;;;3.00;2.38;;;;;;;1.86;66.72;102254.25;5054009;27;96838;-35
2022/03/05 08:24:19;;;;;;;7.05;2.65;;;;;;;1.81;66.17;102252.47;5053155;27;99336;-34
2022/03/05 08:26:44;;;;;;;3.58;2.42;;;;;;;1.87;66.51;102256.00;5053465;27;99413;-34
2022/03/05 08:29:10;;;;;;;5.07;3.03;;;;;;;1.91;67.29;102257.78;5053848;27;96536;-35
2022/03/05 08:31:35;;;;;;;5.22;2.20;;;;;;;1.95;66.92;102249.75;5053976;27;96636;-34
2022/03/05 08:34:03;;;;;;;2.45;2.25;;;;;;;2.04;66.97;102257.75;5052726;27;126815;-34
2022/03/05 08:36:28;;;;;;;3.25;1.88;;;;;;;2.01;66.45;102249.75;5053704;27;98256;-35
2022/03/05 08:38:55;;;;;;;4.63;2.47;;;;;;;1.96;65.71;102244.41;5053543;27;96590;-35
2022/03/05 08:41:20;;;;;;;4.50;2.08;;;;;;;2.11;66.16;102264.84;5035752;27;96782;-34
2022/03/05 08:43:45;;;;;;;8.98;4.32;;;;;;;2.16;66.90;102264.81;5053212;27;107993;-35
2022/03/05 08:46:11;;;;;;;7.72;2.67;;;;;;;2.12;65.63;102250.56;5053625;27;98239;-35
2022/03/05 08:48:36;;;;;;;12.20;3.95;;;;;;;2.14;65.95;102264.81;5052868;27;96571;-34
2022/03/05 08:51:02;;;;;;;6.25;3.80;;;;;;;2.16;65.98;102264.81;5053660;27;96742;-34
2022/03/05 08:53:30;;;;;;;5.45;2.53;;;;;;;2.18;65.80;102260.38;5034911;27;99382;-34
2022/03/05 08:55:55;;;;;;;11.85;3.00;;;;;;;2.12;65.75;102250.56;5035068;27;99202;-34
2022/03/05 08:58:22;;;;;;;13.98;4.60;;;;;;;2.11;65.62;102247.00;5053636;27;96504;-34
2022/03/05 09:00:48;;;;;;;3.13;1.90;;;;;;;2.11;66.64;102252.34;5034966;27;96890;-34
2022/03/05 09:03:14;;;;;;;2.45;2.00;;;;;;;2.07;66.57;102244.34;5034810;27;100848;-34
2022/03/05 09:05:40;;;;;;;4.18;2.30;;;;;;;2.00;66.97;102246.19;5035123;27;100640;-34
2022/03/05 09:08:06;;;;;;;5.60;3.88;;;;;;;2.04;65.76;102245.25;5052948;27;96916;-34
2022/03/05 09:10:32;;;;;;;7.93;3.50;;;;;;;2.09;65.73;102245.25;5053478;27;96778;-34
2022/03/05 09:12:57;;;;;;;2.47;1.52;;;;;;;2.15;66.56;102247.91;5052295;27;99011;-34
2022/03/05 09:15:23;;;;;;;1.77;1.65;;;;;;;2.12;66.00;102239.88;5053033;27;97843;-34
2022/03/05 09:17:48;;;;;;;8.32;3.53;;;;;;;2.22;65.27;102252.34;5053047;27;96744;-34
2022/03/05 09:20:14;;;;;;;8.60;2.78;;;;;;;2.24;66.07;102254.97;5033611;27;98753;-35
2022/03/05 09:22:40;;;;;;;4.30;2.33;;;;;;;2.39;65.98;102264.75;5033185;27;99111;-35
2022/03/05 09:25:06;;;;;;;8.95;3.15;;;;;;;2.48;65.46;102272.69;5030832;27;99119;-35
2022/03/05 09:27:33;;;;;;;3.53;2.60;;;;;;;2.58;65.25;102266.41;5032147;27;97321;-35
2022/03/05 09:29:58;;;;;;;4.25;2.40;;;;;;;2.69;65.68;102266.34;5052323;27;97172;-34
2022/03/05 09:32:24;;;;;;;10.23;2.53;;;;;;;2.82;65.74;102268.06;5052395;27;97914;-34
2022/03/05 09:34:49;;;;;;;6.30;2.83;;;;;;;2.98;64.79;102272.41;5052879;27;97798;-34
2022/03/05 09:37:14;;;;;;;6.53;3.53;;;;;;;3.08;64.40;102266.97;5050041;27;113536;-35
2022/03/05 09:39:40;;;;;;;7.88;2.55;;;;;;;3.12;64.65;102266.03;5033584;27;96873;-35
2022/03/05 09:42:05;;;;;;;14.20;3.17;;;;;;;3.27;64.03;102249.88;5051274;27;97579;-35
2022/03/05 09:44:31;;;;;;;4.57;2.92;;;;;;;3.57;63.62;102261.19;5052004;27;97752;-35
2022/03/05 09:46:59;;;;;;;8.18;2.97;;;;;;;3.70;63.08;102251.25;5034073;27;96774;-34
2022/03/05 09:49:27;;;;;;;6.07;3.15;;;;;;;3.95;62.89;102263.47;5032280;27;97288;-35
2022/03/05 09:51:53;;;;;;;11.65;3.25;;;;;;;4.03;62.99;102244.63;5032395;27;99304;-35
2022/03/05 09:54:19;;;;;;;6.85;3.75;;;;;;;4.42;62.04;102240.53;5052007;27;99175;-34
2022/03/05 09:56:44;;;;;;;7.90;4.18;;;;;;;4.78;61.49;102240.91;5052592;27;96654;-34
2022/03/05 09:59:10;;;;;;;7.35;2.85;;;;;;;5.08;61.17;102247.63;5052442;27;96815;-34
2022/03/05 10:01:35;;;;;;;8.95;3.58;;;;;;;5.27;60.47;102250.00;5051107;27;99609;-35
2022/03/05 10:04:02;;;;;;;7.25;4.20;;;;;;;5.64;60.49;102255.59;5052198;27;99516;-34
2022/03/05 10:06:28;;;;;;;9.68;3.70;;;;;;;5.85;59.28;102243.56;5052442;27;96584;-34
2022/03/05 10:08:57;;;;;;;12.05;4.05;;;;;;;6.21;59.43;102248.28;5034191;27;96853;-34
2022/03/05 10:11:39;;;;;;;8.43;4.38;;;;;;;6.44;58.31;102247.78;5033780;27;101326;-34
2022/03/05 10:14:17;;;;;;;4.65;2.55;;;;;;;6.62;57.22;102241.97;5033679;27;100881;-34
2022/03/05 10:16:43;;;;;;;10.02;3.33;;;;;;;6.72;57.39;102248.94;5034104;27;96473;-34
2022/03/05 10:19:17;;;;;;;10.40;3.58;;;;;;;6.94;56.52;102249.31;5034357;27;96797;-34
2022/03/05 10:21:57;;;;;;;7.57;3.38;;;;;;;7.16;56.71;102244.28;5033690;27;101143;-34
2022/03/05 10:24:36;;;;;;;10.82;3.20;;;;;;;7.27;55.74;102245.81;5051944;27;99190;-34
2022/03/05 10:27:02;;;;;;;9.68;3.72;;;;;;;7.28;55.33;102245.78;5033215;27;97096;-34
2022/03/05 10:29:34;;;;;;;5.80;3.35;;;;;;;7.50;55.75;102248.81;5033775;27;97061;-34
2022/03/05 10:32:10;;;;;;;4.70;2.53;;;;;;;7.67;54.60;102248.34;5033533;27;100984;-34
2022/03/05 10:34:41;;;;;;;9.18;3.83;;;;;;;7.81;55.32;102251.56;5052281;27;98407;-34
2022/03/05 10:37:07;;;;;;;7.70;3.57;;;;;;;7.97;55.04;102249.34;5051416;27;111587;-35
2022/03/05 10:39:32;;;;;;;8.10;4.22;;;;;;;8.18;54.74;102257.78;5052320;27;96787;-34
2022/03/05 10:41:58;;;;;;;19.98;5.60;;;;;;;8.30;54.88;102244.78;5051765;27;98874;-34
2022/03/05 10:44:24;;;;;;;16.92;5.95;;;;;;;8.41;55.26;102241.78;5033814;27;101371;-35
2022/03/05 10:46:58;;;;;;;9.13;4.28;;;;;;;8.53;54.81;102236.94;5051736;27;96550;-35
2022/03/05 10:49:37;;;;;;;12.38;5.50;;;;;;;8.63;54.13;102242.03;5033568;27;96673;-35
2022/03/05 10:52:08;;;;;;;10.38;4.88;;;;;;;8.73;54.73;102239.94;5036470;27;98920;-35
2022/03/05 10:54:44;;;;;;;14.75;5.75;;;;;;;8.79;54.07;102238.84;5036789;27;100694;-34
2022/03/05 10:57:14;;;;;;;11.35;4.70;;;;;;;9.00;53.75;102245.38;5055222;27;96517;-34
2022/03/05 10:59:45;;;;;;;18.60;5.57;;;;;;;8.92;53.25;102238.41;5036861;27;96924;-35
2022/03/05 11:02:13;;;;;;;14.68;4.40;;;;;;;9.09;52.70;102248.66;5036287;27;101388;-35
2022/03/05 11:04:45;;;;;;;11.10;4.97;;;;;;;9.27;52.47;102244.47;5036660;27;100828;-34
2022/03/05 11:07:17;;;;;;;12.65;3.75;;;;;;;9.37;51.57;102239.63;5054710;27;96741;-34
2022/03/05 11:09:43;;;;;;;12.18;5.30;;;;;;;9.54;52.18;102236.34;5055586;27;96651;-34
2022/03/05 11:12:13;;;;;;;12.95;4.35;;;;;;;9.67;52.87;102245.78;5036441;27;101552;-34
2022/03/05 11:14:39;;;;;;;14.15;5.25;;;;;;;9.73;52.68;102231.19;5036636;27;101115;-34
2022/03/05 11:17:05;;;;;;;16.42;5.45;;;;;;;9.91;51.59;102235.03;5036106;27;96537;-35
2022/03/05 11:19:31;;;;;;;21.50;7.55;;;;;;;9.91;51.79;102233.19;5055081;27;96812;-34
2022/03/05 11:21:57;;;;;;;17.20;6.50;;;;;;;9.97;52.34;102235.69;5036305;27;101129;-35
2022/03/05 11:24:23;;;;;;;12.85;5.00;;;;;;;10.01;51.32;102225.66;5054478;27;99490;-34
2022/03/05 11:26:51;;;;;;;21.05;6.75;;;;;;;10.19;50.71;102229.47;5036499;27;96672;-34